John_paul K — PBHY — position and weather

sailwx.info

Track history (hours):
 
Tides and Currents Weather Stations Pressure Air Temp Water Temp Dewpoint Dewpoint Depression Visibility Wind Speed Wind Dir Waves Ship Positions

John_paul K

Last reported at 2014-Nov-24 11:10 UTC. Time now 2014-Nov-29 01:10 UTC.
Position N 37°51' W 009°35'.

Length 90 m; draft 5.7 m.

Type: Cargo ship. MMSI: 245181000.

Date/timePositionNaut miles runAvg speedWind from/ knotsBaromVisibWave heightAir tempDewpointWater temp
2014-Nov-24 11:10N 37°51' W 009°35'5 7.3
2014-Nov-24 10:32N 37°47' W 009°33'9 7.4
2014-Nov-24 09:20N 37°38' W 009°31'218 7.3
2014-Nov-23 03:31N 35°59' W 005°29'6 6.6
2014-Nov-23 02:33N 35°57' W 005°22'5 4.5
2014-Nov-23 01:32N 35°54' W 005°18'0 0.0
2014-Nov-23 00:32N 35°54' W 005°18'0 0.0
2014-Nov-22 23:32N 35°54' W 005°18'0 0.0
2014-Nov-22 22:32N 35°54' W 005°18'0 0.0
2014-Nov-22 21:33N 35°54' W 005°18'2 1.9
2014-Nov-22 20:32N 35°55' W 005°20'0 0.0
2014-Nov-22 19:32N 35°55' W 005°20'0 0.0
2014-Nov-22 18:32N 35°55' W 005°20'0 0.1
2014-Nov-22 17:32N 35°55' W 005°20'0 0.0
2014-Nov-22 16:32N 35°55' W 005°20'1 0.8
2014-Nov-22 15:33N 35°55' W 005°19'3 2.7
2014-Nov-22 14:33N 35°57' W 005°17'397 9.2
2014-Nov-20 19:12N 37°59' E 002°37'7 9.4
2014-Nov-20 18:25N 38°02' E 002°45'21 9.4
2014-Nov-20 16:12N 38°10' E 003°10'5 8.0
2014-Nov-20 15:33N 38°12' E 003°16'24 9.8
2014-Nov-20 13:04N 38°21' E 003°45'2010.0
2014-Nov-20 11:06N 38°28' E 004°08'207 9.6
2014-Nov-19 13:26N 39°46' E 008°16'  
2014-Nov-14 22:07N 39°49' E 008°17'4 7.7
2014-Nov-14 21:33N 39°51' E 008°12'  
Track history (hours):
 
Tides and Currents Weather Stations Pressure Air Temp Water Temp Dewpoint Dewpoint Depression Visibility Wind Speed Wind Dir Waves Ship Positions

John_paul K

Last reported at 2014-Nov-24 11:10 UTC. Time now 2014-Nov-29 01:10 UTC.
Position N 37°51' W 009°35'.

Length 90 m; draft 5.7 m.

Type: Cargo ship. MMSI: 245181000.

Date/timePositionNaut miles runAvg speedWind from/ knotsBaromVisibWave heightAir tempDewpointWater temp
2014-Nov-24 11:10N 37°51' W 009°35'5 7.3
2014-Nov-24 10:32N 37°47' W 009°33'9 7.4
2014-Nov-24 09:20N 37°38' W 009°31'218 7.3
2014-Nov-23 03:31N 35°59' W 005°29'6 6.6
2014-Nov-23 02:33N 35°57' W 005°22'5 4.5
2014-Nov-23 01:32N 35°54' W 005°18'0 0.0
2014-Nov-23 00:32N 35°54' W 005°18'0 0.0
2014-Nov-22 23:32N 35°54' W 005°18'0 0.0
2014-Nov-22 22:32N 35°54' W 005°18'0 0.0
2014-Nov-22 21:33N 35°54' W 005°18'2 1.9
2014-Nov-22 20:32N 35°55' W 005°20'0 0.0
2014-Nov-22 19:32N 35°55' W 005°20'0 0.0
2014-Nov-22 18:32N 35°55' W 005°20'0 0.1
2014-Nov-22 17:32N 35°55' W 005°20'0 0.0
2014-Nov-22 16:32N 35°55' W 005°20'1 0.8
2014-Nov-22 15:33N 35°55' W 005°19'3 2.7
2014-Nov-22 14:33N 35°57' W 005°17'397 9.2
2014-Nov-20 19:12N 37°59' E 002°37'7 9.4
2014-Nov-20 18:25N 38°02' E 002°45'21 9.4
2014-Nov-20 16:12N 38°10' E 003°10'5 8.0
2014-Nov-20 15:33N 38°12' E 003°16'24 9.8
2014-Nov-20 13:04N 38°21' E 003°45'2010.0
2014-Nov-20 11:06N 38°28' E 004°08'207 9.6
2014-Nov-19 13:26N 39°46' E 008°16'  
2014-Nov-14 22:07N 39°49' E 008°17'4 7.7
2014-Nov-14 21:33N 39°51' E 008°12'  

Dump ship's entire track history